Terminal Aerodrome Forecast
Issued by NWS Kansas City/Pleasant Hill, MO

Home | Current Version | Previous Version | Text Only | Print | Product List | Glossary On
Versions: 1 2 3 4 5 6 7 8 9 10 11 12 13 14 15 16 17 18 19 20 21 22 23 24 25
000
FTUS43 KEAX 171400 AAA
TAFMCI
TAF AMD
KMCI 171404Z 1714/1812 13006KT 6SM BR VCSH OVC014
      TEMPO 1714/1717 3SM -DZ BR OVC009
     FM171700 14006KT P6SM BKN020
     FM172000 VRB06KT P6SM SCT025
     FM172300 08007KT P6SM SCT200=

USA.gov is the U.S. government's official web portal to all federal, state and local government web resources and services.